Time;durP1;ratioP1;P1;durP2;ratioP2;P2;SDS_P1;SDS_P2;PMS_P1;PMS_P2;Temp;Humidity;BMP_temperature;BMP_pressure;BME280_temperature;BME280_humidity;BME280_pressure;Samples;Min_cycle;Max_cycle;Signal;HPM_P1;HPM_P2
2024/02/25 00:01:44;;;;;;;3.25;2.00;;;14.60;75.00;;;;;;4210692;27;20046;-41
2024/02/25 00:04:24;;;;;;;3.53;2.25;;;14.60;75.40;;;;;;4205494;28;20058;-42
2024/02/25 00:07:06;;;;;;;4.07;2.25;;;14.60;75.10;;;;;;4219924;27;20054;-47
2024/02/25 00:09:47;;;;;;;2.38;2.15;;;14.60;75.20;;;;;;4223322;27;20042;-45
2024/02/25 00:12:28;;;;;;;4.70;2.65;;;14.60;75.30;;;;;;4237550;27;20482;-48
2024/02/25 00:15:11;;;;;;;4.18;2.00;;;14.50;75.50;;;;;;4238122;27;20046;-47
2024/02/25 00:17:52;;;;;;;2.75;2.15;;;14.60;75.70;;;;;;4238081;27;20054;-46
2024/02/25 00:20:33;;;;;;;3.75;2.47;;;14.50;75.80;;;;;;4222669;27;20189;-47
2024/02/25 00:23:14;;;;;;;5.85;2.40;;;14.50;75.80;;;;;;4203613;28;20051;-47
2024/02/25 00:25:55;;;;;;;2.50;2.30;;;14.50;76.00;;;;;;4220948;27;20054;-48
2024/02/25 00:28:36;;;;;;;3.70;2.22;;;14.50;75.90;;;;;;4204316;28;20506;-46
2024/02/25 00:31:19;;;;;;;2.00;1.90;;;14.50;76.00;;;;;;4205751;28;20503;-43
2024/02/25 00:33:59;;;;;;;3.65;2.33;;;14.50;75.90;;;;;;4192137;28;20067;-44
2024/02/25 00:36:40;;;;;;;3.63;2.08;;;14.50;75.70;;;;;;4204000;28;20062;-44
2024/02/25 00:39:22;;;;;;;2.10;1.90;;;14.50;75.70;;;;;;4203932;28;20787;-44
2024/02/25 00:42:03;;;;;;;2.58;2.38;;;14.50;75.90;;;;;;4219024;28;20561;-42
2024/02/25 00:44:48;;;;;;;2.58;2.25;;;14.50;76.00;;;;;;4213913;27;20054;-44
2024/02/25 00:47:30;;;;;;;3.33;2.15;;;14.50;76.00;;;;;;4204888;28;20055;-44
2024/02/25 00:50:11;;;;;;;2.45;2.25;;;14.50;75.80;;;;;;4220358;27;20057;-47
2024/02/25 00:52:52;;;;;;;3.55;2.40;;;14.50;76.10;;;;;;4211375;28;20058;-45
2024/02/25 00:55:33;;;;;;;5.78;3.17;;;14.50;76.80;;;;;;4214726;27;20104;-45
2024/02/25 00:58:14;;;;;;;6.50;2.30;;;14.40;76.00;;;;;;4219059;28;20074;-42
2024/02/25 01:00:56;;;;;;;3.95;2.58;;;14.40;77.10;;;;;;4205358;28;20412;-41
2024/02/25 01:03:38;;;;;;;2.95;2.40;;;14.40;76.30;;;;;;4203029;28;20059;-42
2024/02/25 01:06:19;;;;;;;5.30;2.90;;;14.40;76.50;;;;;;4219797;28;20054;-42
2024/02/25 01:09:00;;;;;;;4.28;2.40;;;14.40;77.10;;;;;;4203103;28;20067;-45
2024/02/25 01:11:41;;;;;;;2.72;2.53;;;14.40;76.50;;;;;;4203623;28;20479;-44
2024/02/25 01:14:24;;;;;;;3.05;2.58;;;14.40;76.50;;;;;;4203392;28;20067;-45
2024/02/25 01:17:04;;;;;;;3.03;2.65;;;14.40;76.60;;;;;;4219579;28;20051;-46
2024/02/25 01:19:47;;;;;;;3.58;2.60;;;14.40;76.60;;;;;;4215797;27;20059;-45
2024/02/25 01:22:28;;;;;;;3.20;2.90;;;14.30;76.40;;;;;;4200075;28;20125;-47
2024/02/25 01:25:10;;;;;;;3.13;2.83;;;14.40;76.60;;;;;;4187272;28;20044;-47
2024/02/25 01:27:51;;;;;;;2.83;2.63;;;14.30;76.50;;;;;;4192708;28;20059;-44
2024/02/25 01:30:32;;;;;;;3.05;2.75;;;14.30;77.50;;;;;;4220493;28;20051;-44
2024/02/25 01:33:13;;;;;;;4.93;2.65;;;14.30;76.60;;;;;;4209944;28;20119;-42
2024/02/25 01:35:55;;;;;;;3.00;2.70;;;14.30;76.70;;;;;;4204574;28;20178;-44
2024/02/25 01:38:36;;;;;;;4.75;2.80;;;14.30;77.40;;;;;;4220436;28;20054;-45
2024/02/25 01:41:18;;;;;;;3.50;3.13;;;14.30;77.30;;;;;;4186930;28;20075;-45
2024/02/25 01:43:59;;;;;;;3.40;3.10;;;14.30;77.20;;;;;;4198827;28;20558;-49
2024/02/25 01:46:45;;;;;;;2.78;2.40;;;14.30;77.50;;;;;;4207829;28;20051;-46
2024/02/25 01:49:26;;;;;;;3.45;2.55;;;14.20;77.40;;;;;;4207492;27;20400;-46
2024/02/25 01:52:08;;;;;;;4.78;2.65;;;14.20;77.40;;;;;;4186370;28;20480;-44
2024/02/25 01:54:50;;;;;;;3.22;2.90;;;14.30;77.60;;;;;;4188436;28;20075;-47
2024/02/25 01:57:32;;;;;;;4.82;3.28;;;14.30;77.50;;;;;;4219488;28;20050;-46
2024/02/25 02:00:14;;;;;;;5.18;2.88;;;14.40;77.00;;;;;;4219136;28;20059;-46
2024/02/25 02:02:55;;;;;;;2.60;2.30;;;14.40;76.90;;;;;;4219915;28;20054;-44
2024/02/25 02:05:36;;;;;;;2.67;2.47;;;14.40;76.60;;;;;;4219574;28;20066;-48
2024/02/25 02:08:19;;;;;;;3.53;2.65;;;14.40;76.60;;;;;;4206458;27;20609;-49
2024/02/25 02:11:14;;;;;;;3.47;2.58;;;14.40;76.50;;;;;;4204794;28;20178;-45
2024/02/25 02:13:55;;;;;;;4.00;3.10;;;14.40;76.80;;;;;;4203495;28;20059;-42
2024/02/25 02:16:36;;;;;;;3.22;2.28;;;14.50;78.10;;;;;;4217408;28;20415;-42
2024/02/25 02:19:17;;;;;;;2.65;2.42;;;14.60;77.90;;;;;;4219682;28;20082;-42
2024/02/25 02:22:00;;;;;;;2.55;2.35;;;14.70;77.50;;;;;;4221770;27;20420;-42
2024/02/25 02:24:40;;;;;;;3.40;2.35;;;14.80;77.00;;;;;;4204966;28;20581;-47
2024/02/25 02:27:21;;;;;;;2.60;2.40;;;14.90;76.50;;;;;;4189738;28;20086;-46
2024/02/25 02:30:03;;;;;;;3.25;2.90;;;14.90;76.10;;;;;;4191268;28;20065;-45
2024/02/25 02:32:44;;;;;;;;;;;14.90;75.90;;;;;;4193937;28;20052;-45
2024/02/25 02:35:25;;;;;;;3.45;3.10;;;14.90;76.00;;;;;;4222700;28;19969;-44
2024/02/25 02:38:12;;;;;;;3.92;2.38;;;15.00;77.20;;;;;;4206030;28;20051;-45
2024/02/25 02:40:53;;;;;;;2.53;2.33;;;15.00;76.30;;;;;;4208009;28;20090;-46
2024/02/25 02:43:34;;;;;;;2.60;2.40;;;15.10;76.10;;;;;;4207427;28;20150;-48
2024/02/25 02:46:21;;;;;;;3.17;2.20;;;15.10;76.00;;;;;;4221269;28;20581;-45
2024/02/25 02:49:02;;;;;;;2.47;2.30;;;15.20;75.70;;;;;;4231313;27;20176;-44
2024/02/25 02:51:44;;;;;;;2.50;2.30;;;15.20;76.60;;;;;;4239041;27;20490;-46
2024/02/25 02:54:26;;;;;;;2.67;2.05;;;15.20;75.90;;;;;;4191689;28;20416;-42
2024/02/25 02:57:07;;;;;;;2.30;2.13;;;15.20;75.80;;;;;;4202390;28;20058;-43
2024/02/25 02:59:48;;;;;;;2.45;2.20;;;15.20;75.60;;;;;;4211101;27;20173;-42
2024/02/25 03:02:29;;;;;;;2.92;2.38;;;15.20;75.80;;;;;;4212728;28;20063;-42
2024/02/25 03:05:10;;;;;;;2.28;2.10;;;15.20;75.90;;;;;;4222064;27;20548;-42
2024/02/25 03:07:53;;;;;;;2.47;2.28;;;15.20;75.90;;;;;;4221605;27;20509;-42
2024/02/25 03:10:36;;;;;;;3.80;2.13;;;15.20;76.00;;;;;;4222053;27;20063;-42
2024/02/25 03:13:17;;;;;;;1.95;1.85;;;15.20;76.20;;;;;;4221599;27;20077;-47
2024/02/25 03:15:58;;;;;;;3.28;1.85;;;15.30;76.00;;;;;;4221636;27;20063;-42
2024/02/25 03:18:39;;;;;;;;;;;15.30;76.10;;;;;;4222682;27;20082;-43
2024/02/25 03:21:21;;;;;;;1.50;1.40;;;15.40;75.80;;;;;;4221767;28;20000;-42
2024/02/25 03:24:02;;;;;;;2.20;1.67;;;15.40;75.90;;;;;;4221084;27;20095;-42
2024/02/25 03:26:47;;;;;;;1.55;1.50;;;15.50;75.70;;;;;;4221880;27;20055;-42
2024/02/25 03:29:28;;;;;;;1.63;1.40;;;15.50;75.30;;;;;;4220085;27;20488;-42
2024/02/25 03:32:10;;;;;;;3.37;1.80;;;15.50;75.60;;;;;;4189809;28;20507;-42
2024/02/25 03:34:51;;;;;;;2.25;1.50;;;15.50;75.60;;;;;;4194366;28;20054;-43
2024/02/25 03:37:32;;;;;;;1.70;1.60;;;15.50;75.60;;;;;;4213738;28;20067;-42
2024/02/25 03:40:13;;;;;;;2.13;1.30;;;15.50;75.90;;;;;;4238192;27;20053;-46
2024/02/25 03:42:56;;;;;;;1.98;1.33;;;15.40;75.40;;;;;;4195000;27;20400;-46
2024/02/25 03:45:37;;;;;;;1.45;1.23;;;15.40;75.10;;;;;;4187659;28;20047;-45
2024/02/25 03:48:18;;;;;;;2.22;1.40;;;15.40;75.40;;;;;;4204294;28;20054;-45
2024/02/25 03:51:00;;;;;;;1.88;1.33;;;15.40;75.70;;;;;;4196500;28;20066;-49
2024/02/25 03:53:43;;;;;;;1.55;1.10;;;15.50;75.90;;;;;;4195717;28;20108;-46
2024/02/25 03:56:25;;;;;;;1.70;1.42;;;15.50;75.80;;;;;;4191787;28;20064;-44
2024/02/25 03:59:07;;;;;;;;;;;15.50;75.60;;;;;;4204653;28;20113;-45
2024/02/25 04:01:50;;;;;;;1.98;1.30;;;15.50;75.50;;;;;;4204154;28;19927;-41
2024/02/25 04:04:31;;;;;;;1.17;1.10;;;15.50;76.30;;;;;;4187293;28;20055;-42
2024/02/25 04:07:12;;;;;;;1.30;1.20;;;15.50;75.30;;;;;;4204158;28;20511;-43
2024/02/25 04:09:53;;;;;;;2.03;0.98;;;15.50;75.10;;;;;;4186472;28;20057;-44
2024/02/25 04:12:34;;;;;;;2.78;1.58;;;15.50;75.50;;;;;;4199183;28;20070;-43
2024/02/25 04:15:17;;;;;;;1.42;1.15;;;15.50;75.40;;;;;;4191893;28;20051;-42
2024/02/25 04:17:58;;;;;;;1.95;1.20;;;15.50;75.30;;;;;;4213998;28;20176;-42
2024/02/25 04:20:39;;;;;;;1.52;1.33;;;15.50;75.10;;;;;;4204046;28;20177;-42
2024/02/25 04:23:21;;;;;;;1.50;1.40;;;15.60;75.30;;;;;;4220799;28;20058;-42
2024/02/25 04:26:03;;;;;;;4.05;1.20;;;15.60;75.10;;;;;;4203801;28;20055;-42
2024/02/25 04:28:43;;;;;;;1.65;1.15;;;15.60;75.10;;;;;;4219928;28;20055;-42
2024/02/25 04:31:26;;;;;;;2.13;1.30;;;15.60;75.00;;;;;;4219441;27;20082;-42
2024/02/25 04:34:07;;;;;;;1.63;1.48;;;15.60;74.90;;;;;;4220486;27;20071;-42
2024/02/25 04:36:48;;;;;;;2.05;1.38;;;15.60;74.80;;;;;;4217831;28;20521;-43
2024/02/25 04:39:29;;;;;;;2.22;1.27;;;15.60;75.10;;;;;;4220516;28;20453;-42
2024/02/25 04:42:10;;;;;;;1.10;0.85;;;15.60;75.30;;;;;;4220459;28;20054;-44
2024/02/25 04:44:51;;;;;;;2.38;1.20;;;15.60;75.20;;;;;;4219460;28;20050;-42
2024/02/25 04:47:34;;;;;;;1.55;1.45;;;15.60;75.20;;;;;;4205266;28;20051;-43
2024/02/25 04:50:15;;;;;;;1.00;1.00;;;15.60;75.10;;;;;;4220865;27;20054;-42
2024/02/25 04:52:56;;;;;;;1.30;1.20;;;15.60;75.30;;;;;;4212851;28;20058;-42
2024/02/25 04:55:38;;;;;;;1.50;1.00;;;15.60;75.30;;;;;;4219817;27;20514;-42
2024/02/25 04:58:18;;;;;;;1.42;1.10;;;15.60;75.50;;;;;;4202847;28;20142;-42
2024/02/25 05:01:00;;;;;;;2.28;1.63;;;15.60;75.60;;;;;;4204543;27;20139;-42
2024/02/25 05:03:42;;;;;;;1.40;1.38;;;15.70;75.50;;;;;;4213626;27;20082;-43
2024/02/25 05:06:23;;;;;;;2.33;1.38;;;15.70;75.20;;;;;;4220190;28;20797;-42
2024/02/25 05:09:05;;;;;;;2.30;1.33;;;15.70;75.20;;;;;;4220328;28;20236;-42
2024/02/25 05:11:46;;;;;;;1.20;1.08;;;15.70;75.00;;;;;;4217310;27;20199;-42
2024/02/25 05:14:27;;;;;;;1.97;1.43;;;15.70;75.20;;;;;;4203406;28;20067;-42
2024/02/25 05:17:08;;;;;;;2.05;1.80;;;15.70;75.30;;;;;;4189757;28;20774;-43
2024/02/25 05:19:50;;;;;;;1.65;1.38;;;15.70;75.40;;;;;;4187145;28;20056;-42
2024/02/25 05:22:32;;;;;;;1.35;1.25;;;15.60;75.60;;;;;;4210131;27;20137;-42
2024/02/25 05:25:14;;;;;;;1.45;1.35;;;15.60;75.80;;;;;;4204528;28;20514;-42
2024/02/25 05:27:55;;;;;;;1.30;1.30;;;15.70;75.50;;;;;;4202916;28;20407;-42
2024/02/25 05:30:36;;;;;;;1.80;1.25;;;15.70;75.50;;;;;;4202054;28;20054;-42
2024/02/25 05:33:17;;;;;;;2.40;1.60;;;15.70;75.30;;;;;;4189257;28;20464;-43
2024/02/25 05:36:00;;;;;;;1.30;1.30;;;15.70;75.40;;;;;;4201040;28;20054;-42
2024/02/25 05:38:41;;;;;;;1.38;1.05;;;15.70;75.30;;;;;;4203226;28;20058;-42
2024/02/25 05:41:22;;;;;;;2.00;1.90;;;15.60;75.50;;;;;;4194320;28;20101;-42
2024/02/25 05:44:03;;;;;;;1.52;1.40;;;15.60;75.80;;;;;;4202922;28;20096;-42
2024/02/25 05:46:44;;;;;;;1.85;1.75;;;15.60;76.10;;;;;;4219605;28;20113;-44
2024/02/25 05:49:26;;;;;;;2.25;1.80;;;15.70;75.60;;;;;;4232652;27;20456;-45
2024/02/25 05:52:08;;;;;;;1.65;1.55;;;15.70;75.50;;;;;;4207287;27;20063;-42
2024/02/25 05:54:49;;;;;;;1.92;1.73;;;15.70;75.50;;;;;;4210588;28;20047;-41
2024/02/25 05:57:30;;;;;;;1.90;1.80;;;15.70;75.50;;;;;;4222703;28;20181;-42
2024/02/25 06:00:12;;;;;;;1.98;1.88;;;15.70;75.60;;;;;;4206676;27;20182;-42
2024/02/25 06:02:54;;;;;;;2.67;1.92;;;15.70;75.60;;;;;;4191460;28;20561;-42
2024/02/25 06:05:36;;;;;;;1.95;1.60;;;15.80;75.70;;;;;;4219883;27;20145;-42
2024/02/25 06:08:18;;;;;;;2.17;1.98;;;15.80;75.70;;;;;;4240062;27;20589;-44
2024/02/25 06:10:59;;;;;;;1.83;1.73;;;15.80;75.70;;;;;;4231576;27;20062;-42
2024/02/25 06:13:40;;;;;;;2.28;2.15;;;15.70;75.60;;;;;;4197855;28;20178;-42
2024/02/25 06:16:21;;;;;;;3.35;2.00;;;15.70;75.70;;;;;;4193239;28;20610;-42
2024/02/25 06:19:02;;;;;;;2.00;1.90;;;15.70;75.90;;;;;;4206390;28;20499;-45
2024/02/25 06:21:44;;;;;;;2.15;2.05;;;15.70;75.90;;;;;;4217892;27;20101;-44
2024/02/25 06:24:26;;;;;;;2.35;2.15;;;15.70;76.10;;;;;;4227408;27;20074;-45
2024/02/25 06:27:07;;;;;;;3.47;2.17;;;15.70;75.90;;;;;;4190187;28;20361;-46
2024/02/25 06:29:48;;;;;;;2.20;2.10;;;15.70;76.00;;;;;;4178499;28;20113;-45
2024/02/25 06:32:30;;;;;;;2.25;2.15;;;15.80;76.00;;;;;;4199933;28;20097;-45
2024/02/25 06:35:12;;;;;;;2.45;2.03;;;15.70;76.10;;;;;;4189271;28;20051;-44
2024/02/25 06:37:53;;;;;;;3.25;2.30;;;15.70;76.10;;;;;;4197198;28;20054;-46
2024/02/25 06:40:35;;;;;;;2.38;2.28;;;15.80;76.10;;;;;;4239396;27;20054;-45
2024/02/25 06:43:16;;;;;;;2.30;2.10;;;15.80;75.90;;;;;;4238721;27;20046;-48
2024/02/25 06:45:58;;;;;;;2.35;2.17;;;15.80;75.90;;;;;;4221958;27;20046;-44
2024/02/25 06:48:39;;;;;;;2.33;2.22;;;15.90;75.80;;;;;;4224961;27;20054;-43
2024/02/25 06:51:21;;;;;;;2.80;2.47;;;15.80;75.50;;;;;;4196117;28;20055;-44
2024/02/25 06:54:03;;;;;;;2.28;2.17;;;15.90;75.60;;;;;;4192953;28;20182;-46
2024/02/25 06:56:45;;;;;;;2.53;2.30;;;15.90;75.90;;;;;;4186717;28;20126;-44
2024/02/25 06:59:26;;;;;;;2.90;2.50;;;15.90;75.60;;;;;;4216878;27;20510;-46
2024/02/25 07:02:08;;;;;;;2.63;2.38;;;15.90;75.70;;;;;;4191829;28;20408;-41
2024/02/25 07:04:49;;;;;;;2.35;2.10;;;16.00;75.40;;;;;;4187006;28;20063;-41
2024/02/25 07:07:30;;;;;;;2.38;2.20;;;16.00;75.40;;;;;;4200726;27;20055;-41
2024/02/25 07:10:11;;;;;;;3.05;2.75;;;16.00;75.30;;;;;;4189598;28;20052;-41
2024/02/25 07:12:54;;;;;;;2.55;2.35;;;16.00;75.30;;;;;;4206806;27;20444;-41
2024/02/25 07:15:34;;;;;;;2.25;2.08;;;15.90;75.30;;;;;;4188426;28;20063;-42
2024/02/25 07:18:15;;;;;;;2.78;2.20;;;15.90;75.40;;;;;;4217830;28;20057;-45
2024/02/25 07:20:57;;;;;;;2.70;2.50;;;15.90;75.30;;;;;;4187548;28;20075;-45
2024/02/25 07:23:40;;;;;;;2.10;2.00;;;15.90;76.00;;;;;;4188027;28;20182;-45
2024/02/25 07:26:21;;;;;;;3.45;2.10;;;15.90;75.90;;;;;;4200372;28;20063;-46
2024/02/25 07:29:03;;;;;;;2.58;1.95;;;15.90;75.80;;;;;;4205156;28;20055;-45
2024/02/25 07:31:44;;;;;;;1.90;1.80;;;16.00;75.80;;;;;;4220153;27;20499;-46
2024/02/25 07:34:25;;;;;;;2.00;1.90;;;16.00;75.50;;;;;;4221616;27;20050;-46
2024/02/25 07:37:07;;;;;;;;;;;15.90;75.50;;;;;;4221822;27;20062;-44
2024/02/25 07:39:47;;;;;;;2.30;2.10;;;15.90;75.70;;;;;;4207495;28;20023;-45
2024/02/25 07:42:28;;;;;;;2.33;2.13;;;15.90;75.90;;;;;;4233050;27;20058;-46
2024/02/25 07:45:11;;;;;;;2.30;1.88;;;15.90;75.90;;;;;;4238042;27;20111;-44
2024/02/25 07:47:52;;;;;;;2.03;1.80;;;16.00;75.80;;;;;;4190185;28;20070;-44
2024/02/25 07:50:33;;;;;;;2.97;2.72;;;15.90;75.80;;;;;;4203224;27;20467;-44
2024/02/25 07:53:15;;;;;;;2.13;1.90;;;15.90;75.50;;;;;;4217722;27;20521;-46
2024/02/25 07:55:56;;;;;;;2.38;2.15;;;15.80;75.60;;;;;;4211260;27;20070;-44
2024/02/25 07:58:37;;;;;;;1.90;1.80;;;15.80;76.00;;;;;;4203339;28;20055;-44
2024/02/25 08:01:20;;;;;;;2.20;2.00;;;15.80;76.50;;;;;;4211098;28;20055;-44
2024/02/25 08:04:01;;;;;;;2.83;2.10;;;15.80;76.40;;;;;;4221872;28;20054;-44
2024/02/25 08:06:42;;;;;;;2.13;1.92;;;15.80;76.20;;;;;;4215082;28;20188;-44
2024/02/25 08:09:24;;;;;;;2.80;1.77;;;15.70;76.80;;;;;;4204515;28;20163;-44
2024/02/25 08:12:05;;;;;;;1.95;1.77;;;15.70;75.60;;;;;;4206383;27;20070;-44
2024/02/25 08:14:46;;;;;;;1.95;1.85;;;15.80;75.20;;;;;;4207297;27;20051;-44
2024/02/25 08:17:28;;;;;;;1.92;1.80;;;15.80;74.30;;;;;;4186655;28;20059;-44
2024/02/25 08:20:11;;;;;;;3.35;2.00;;;15.90;73.60;;;;;;4205702;27;20051;-44
2024/02/25 08:22:52;;;;;;;2.30;1.90;;;15.90;72.80;;;;;;4201616;28;20089;-44
2024/02/25 08:25:33;;;;;;;2.20;1.88;;;16.00;71.90;;;;;;4204051;28;20201;-41
2024/02/25 08:28:14;;;;;;;1.70;1.60;;;16.00;71.80;;;;;;4203605;28;20046;-41
2024/02/25 08:30:55;;;;;;;1.98;1.88;;;16.00;71.20;;;;;;4187326;28;20125;-45
2024/02/25 08:33:38;;;;;;;1.70;1.60;;;16.00;70.50;;;;;;4196951;28;20511;-44
2024/02/25 08:36:19;;;;;;;2.25;1.77;;;16.10;70.20;;;;;;4220890;27;20041;-43
2024/02/25 08:39:00;;;;;;;1.75;1.65;;;16.00;70.20;;;;;;4218967;28;20054;-45
2024/02/25 08:41:41;;;;;;;2.03;1.77;;;16.00;70.30;;;;;;4186768;28;20409;-47
2024/02/25 08:44:22;;;;;;;2.90;1.85;;;16.00;70.20;;;;;;4195156;28;20091;-46
2024/02/25 08:47:04;;;;;;;3.75;1.67;;;15.90;70.10;;;;;;4188104;28;20455;-41
2024/02/25 08:49:46;;;;;;;1.70;1.60;;;15.90;70.20;;;;;;4189910;28;20060;-40
2024/02/25 08:52:27;;;;;;;2.10;1.88;;;16.00;69.90;;;;;;4202743;27;20063;-40
2024/02/25 08:55:09;;;;;;;1.80;1.70;;;16.10;70.60;;;;;;4197394;27;20523;-41
2024/02/25 08:57:50;;;;;;;2.03;1.52;;;16.10;69.50;;;;;;4202626;28;20051;-41
2024/02/25 09:00:31;;;;;;;1.90;1.80;;;16.20;69.20;;;;;;4211455;27;20128;-41
2024/02/25 09:03:14;;;;;;;1.55;1.45;;;16.20;70.20;;;;;;4203551;28;20079;-41
2024/02/25 09:05:56;;;;;;;1.70;1.60;;;16.10;69.40;;;;;;4213804;27;20050;-41
2024/02/25 09:08:38;;;;;;;2.30;1.75;;;16.10;69.30;;;;;;4199749;28;20493;-41
2024/02/25 09:11:19;;;;;;;1.90;1.80;;;16.20;69.00;;;;;;4199942;28;20051;-41
2024/02/25 09:14:00;;;;;;;3.53;1.77;;;16.20;68.60;;;;;;4205568;27;20054;-41
2024/02/25 09:16:41;;;;;;;1.60;1.60;;;16.30;68.30;;;;;;4190165;28;20109;-41
2024/02/25 09:19:22;;;;;;;2.13;1.83;;;16.30;68.00;;;;;;4186595;28;20060;-41
2024/02/25 09:22:05;;;;;;;1.33;1.33;;;16.30;67.80;;;;;;4189684;28;20069;-41
2024/02/25 09:24:47;;;;;;;1.52;1.52;;;16.30;67.60;;;;;;4193629;28;20095;-41
2024/02/25 09:27:28;;;;;;;1.63;1.60;;;16.20;68.30;;;;;;4189686;28;20132;-40
2024/02/25 09:30:10;;;;;;;2.22;2.00;;;16.20;67.40;;;;;;4200512;28;20132;-40
2024/02/25 09:32:51;;;;;;;1.55;1.52;;;16.20;67.70;;;;;;4222859;27;20054;-40
2024/02/25 09:35:32;;;;;;;1.88;1.77;;;16.20;67.50;;;;;;4223783;27;20050;-41
2024/02/25 09:38:14;;;;;;;2.05;1.45;;;16.20;67.10;;;;;;4213443;27;20544;-40
2024/02/25 09:41:00;;;;;;;2.17;2.08;;;16.20;66.80;;;;;;4232532;27;20097;-41
2024/02/25 09:43:42;;;;;;;2.10;1.13;;;16.20;66.40;;;;;;4221958;27;20124;-40
2024/02/25 09:46:24;;;;;;;2.08;1.98;;;16.10;66.30;;;;;;4212684;28;20055;-43
2024/02/25 09:49:08;;;;;;;3.08;2.30;;;16.20;66.20;;;;;;4204982;28;20522;-43
2024/02/25 09:51:50;;;;;;;4.28;2.70;;;16.40;65.90;;;;;;4211487;27;20182;-44
2024/02/25 09:54:33;;;;;;;2.75;2.63;;;16.70;64.70;;;;;;4210915;27;20162;-44
2024/02/25 09:57:14;;;;;;;1.77;1.67;;;17.20;63.10;;;;;;4194919;27;20087;-46
2024/02/25 09:59:55;;;;;;;2.78;2.58;;;17.70;62.40;;;;;;4206572;28;20051;-45
2024/02/25 10:02:37;;;;;;;2.78;2.67;;;18.10;60.20;;;;;;4193947;28;20137;-52
2024/02/25 10:05:19;;;;;;;;;;;18.40;59.70;;;;;;4198545;28;20074;-45
2024/02/25 10:08:06;;;;;;;2.90;2.72;;;18.70;58.00;;;;;;4214495;28;20279;-47
2024/02/25 10:10:49;;;;;;;1.98;1.88;;;18.90;57.20;;;;;;4194484;28;20132;-45
2024/02/25 10:13:30;;;;;;;2.55;2.42;;;19.20;56.50;;;;;;4227111;27;20129;-47
2024/02/25 10:16:16;;;;;;;1.80;1.70;;;19.40;55.90;;;;;;4216003;27;20128;-45
2024/02/25 10:18:57;;;;;;;2.60;2.50;;;19.50;55.30;;;;;;4222278;28;20055;-46
2024/02/25 10:21:38;;;;;;;2.75;2.55;;;19.60;54.90;;;;;;4201587;28;20153;-46
2024/02/25 10:24:29;;;;;;;2.08;1.98;;;19.60;54.70;;;;;;4201816;28;20125;-45
2024/02/25 10:27:12;;;;;;;2.40;2.30;;;19.50;55.70;;;;;;4201762;28;20055;-45
2024/02/25 10:29:55;;;;;;;2.83;2.63;;;19.40;55.00;;;;;;4193595;28;20058;-41
2024/02/25 10:32:38;;;;;;;4.68;2.65;;;19.20;55.10;;;;;;4219156;27;20051;-41
2024/02/25 10:35:20;;;;;;;2.70;2.60;;;19.20;55.40;;;;;;4211711;28;20463;-41
2024/02/25 10:38:01;;;;;;;3.13;2.92;;;19.10;55.40;;;;;;4220403;27;20078;-41
2024/02/25 10:40:44;;;;;;;2.92;2.72;;;19.00;55.50;;;;;;4187695;28;20492;-42
2024/02/25 10:43:27;;;;;;;4.05;2.50;;;18.90;55.80;;;;;;4212475;27;20050;-42
2024/02/25 10:46:18;;;;;;;3.35;3.03;;;18.90;56.30;;;;;;4222361;27;20367;-46
2024/02/25 10:49:04;;;;;;;3.03;2.78;;;18.90;56.10;;;;;;4221967;27;20062;-46
2024/02/25 10:51:48;;;;;;;3.85;2.95;;;18.90;55.80;;;;;;4207256;28;20062;-45
2024/02/25 10:54:30;;;;;;;4.95;2.75;;;18.90;55.80;;;;;;4222306;27;20059;-46
2024/02/25 10:57:12;;;;;;;2.50;2.13;;;19.00;56.40;;;;;;4220575;27;20524;-45
2024/02/25 10:59:56;;;;;;;3.30;2.85;;;19.00;55.80;;;;;;4215886;28;20050;-45
2024/02/25 11:02:38;;;;;;;2.15;1.92;;;19.00;55.10;;;;;;4188654;28;20059;-45
2024/02/25 11:05:19;;;;;;;3.60;3.30;;;19.10;55.10;;;;;;4203832;28;20791;-50
2024/02/25 11:08:01;;;;;;;3.50;3.30;;;19.00;54.80;;;;;;4195721;28;20669;-45
2024/02/25 11:10:45;;;;;;;3.75;3.45;;;18.90;55.10;;;;;;4192036;28;20134;-45
2024/02/25 11:13:27;;;;;;;3.45;3.25;;;18.90;55.20;;;;;;4205142;28;20070;-46
2024/02/25 11:16:10;;;;;;;3.17;2.90;;;18.90;55.30;;;;;;4191623;28;20101;-45
2024/02/25 11:18:51;;;;;;;3.83;3.60;;;18.90;55.20;;;;;;4200407;28;20385;-46
2024/02/25 11:21:33;;;;;;;2.88;2.78;;;18.90;55.20;;;;;;4206785;27;20063;-46
2024/02/25 11:24:14;;;;;;;3.30;3.00;;;18.90;55.00;;;;;;4207139;28;20051;-45
2024/02/25 11:26:56;;;;;;;3.15;2.95;;;18.90;55.50;;;;;;4203783;28;20096;-45
2024/02/25 11:29:37;;;;;;;4.22;3.92;;;19.00;55.40;;;;;;4188373;28;20055;-44
2024/02/25 11:32:37;;;;;;;4.55;4.13;;;19.00;55.50;;;;;;4207991;27;20055;-45
2024/02/25 11:35:24;;;;;;;3.92;3.65;;;18.90;55.60;;;;;;4213799;28;20453;-47
2024/02/25 11:38:07;;;;;;;3.85;3.42;;;18.90;56.00;;;;;;4197635;28;20595;-46
2024/02/25 11:40:48;;;;;;;3.78;3.40;;;18.80;56.20;;;;;;4202953;28;20047;-48
2024/02/25 11:43:31;;;;;;;4.22;3.90;;;18.80;56.00;;;;;;4206435;27;20048;-46
2024/02/25 11:46:12;;;;;;;2.95;2.75;;;18.90;55.80;;;;;;4205391;28;20081;-46
2024/02/25 11:48:55;;;;;;;3.75;3.55;;;18.90;55.60;;;;;;4217119;27;20484;-46
2024/02/25 11:51:36;;;;;;;3.80;3.45;;;18.90;55.50;;;;;;4204128;28;20169;-45
2024/02/25 11:54:19;;;;;;;;;;;19.00;55.60;;;;;;4216883;28;20051;-46
2024/02/25 11:57:00;;;;;;;4.07;3.65;;;19.00;55.40;;;;;;4202061;28;19928;-45
2024/02/25 11:59:42;;;;;;;4.03;3.72;;;18.90;55.20;;;;;;4218379;27;20124;-46
2024/02/25 12:02:22;;;;;;;;;;;18.90;55.50;;;;;;4219748;28;20054;-47
2024/02/25 12:05:05;;;;;;;4.03;3.72;;;18.90;55.50;;;;;;4207199;27;20279;-48
2024/02/25 12:07:55;;;;;;;3.53;3.25;;;18.80;55.40;;;;;;4213265;28;20124;-47
2024/02/25 12:10:37;;;;;;;4.13;3.80;;;18.80;55.60;;;;;;4219656;27;20050;-42
2024/02/25 12:13:19;;;;;;;4.32;4.03;;;18.70;55.90;;;;;;4212117;27;20189;-42
2024/02/25 12:16:00;;;;;;;3.80;3.50;;;18.60;56.10;;;;;;4205343;28;20716;-42
2024/02/25 12:18:41;;;;;;;3.80;1.73;;;18.60;56.20;;;;;;4202675;28;20046;-42
2024/02/25 12:21:25;;;;;;;4.22;3.92;;;18.60;56.70;;;;;;4190303;28;20063;-42
2024/02/25 12:24:07;;;;;;;6.47;5.78;;;18.70;56.40;;;;;;4188259;28;20055;-42
2024/02/25 12:26:49;;;;;;;5.25;4.85;;;18.80;56.20;;;;;;4191320;28;20164;-48
2024/02/25 12:29:32;;;;;;;4.53;4.13;;;18.80;55.70;;;;;;4228186;27;20047;-46
2024/02/25 12:32:14;;;;;;;4.00;3.70;;;18.80;55.80;;;;;;4204279;28;20059;-42
2024/02/25 12:34:55;;;;;;;3.92;3.63;;;18.80;56.10;;;;;;4198001;28;20079;-41
2024/02/25 12:37:38;;;;;;;3.88;3.45;;;18.80;55.70;;;;;;4187021;28;20059;-42
2024/02/25 12:40:19;;;;;;;3.40;3.10;;;18.80;54.80;;;;;;4200534;28;20186;-42
2024/02/25 12:43:00;;;;;;;;;;;18.80;54.40;;;;;;4194777;27;20062;-44
2024/02/25 12:45:42;;;;;;;3.83;3.53;;;18.80;54.00;;;;;;4207097;27;19963;-42
2024/02/25 12:48:23;;;;;;;4.03;3.72;;;18.70;54.20;;;;;;4197954;28;20515;-42
2024/02/25 12:51:04;;;;;;;3.38;3.17;;;18.70;54.30;;;;;;4188100;28;20500;-42
2024/02/25 12:53:47;;;;;;;3.35;3.08;;;18.60;54.50;;;;;;4203310;28;20051;-46
2024/02/25 12:56:29;;;;;;;4.38;3.97;;;18.60;54.60;;;;;;4203362;28;20055;-47
2024/02/25 12:59:11;;;;;;;3.75;3.55;;;18.60;54.70;;;;;;4187012;28;20055;-46
2024/02/25 13:01:52;;;;;;;4.00;3.65;;;18.60;54.90;;;;;;4203345;28;20507;-41
2024/02/25 13:04:33;;;;;;;3.78;2.75;;;18.60;55.10;;;;;;4194647;28;20064;-42
2024/02/25 13:07:15;;;;;;;3.10;2.90;;;18.50;55.20;;;;;;4186792;28;20105;-41
2024/02/25 13:09:57;;;;;;;2.92;2.72;;;18.50;55.20;;;;;;4202869;28;20755;-41
2024/02/25 13:12:39;;;;;;;2.25;2.15;;;18.40;55.30;;;;;;4187720;28;20063;-42
2024/02/25 13:15:20;;;;;;;3.22;2.60;;;18.40;55.60;;;;;;4188049;28;20165;-42
2024/02/25 13:18:01;;;;;;;2.40;2.28;;;18.40;55.30;;;;;;4186902;28;20082;-41
2024/02/25 13:20:42;;;;;;;2.88;2.67;;;18.40;55.00;;;;;;4186774;28;20064;-42
2024/02/25 13:23:23;;;;;;;2.63;2.50;;;18.30;54.90;;;;;;4203854;28;20565;-42
2024/02/25 13:26:08;;;;;;;2.72;2.63;;;18.30;55.20;;;;;;4203401;28;20180;-42
2024/02/25 13:28:50;;;;;;;2.95;2.75;;;18.20;55.20;;;;;;4213703;28;20172;-41
2024/02/25 13:31:30;;;;;;;3.42;3.20;;;18.30;55.00;;;;;;4236569;27;20058;-47
2024/02/25 13:34:12;;;;;;;2.83;2.72;;;18.20;54.80;;;;;;4227172;27;20055;-47
2024/02/25 13:36:53;;;;;;;1.70;1.70;;;18.20;55.10;;;;;;4208047;27;20548;-46
2024/02/25 13:39:35;;;;;;;1.70;1.70;;;18.20;55.50;;;;;;4199608;28;20504;-45
2024/02/25 13:42:16;;;;;;;3.92;3.72;;;18.10;56.10;;;;;;4192897;27;20628;-42
2024/02/25 13:44:58;;;;;;;1.90;1.80;;;18.00;56.80;;;;;;4220526;27;20050;-42
2024/02/25 13:47:39;;;;;;;;;;;17.90;57.30;;;;;;4204575;27;20056;-42
2024/02/25 13:50:21;;;;;;;2.28;2.17;;;17.80;57.50;;;;;;4186755;28;19985;-41
2024/02/25 13:53:03;;;;;;;2.88;2.67;;;17.80;58.00;;;;;;4207973;27;20503;-41
2024/02/25 13:55:44;;;;;;;2.63;2.42;;;17.80;58.30;;;;;;4193930;28;20098;-42
2024/02/25 13:58:26;;;;;;;;;;;17.80;58.40;;;;;;4203224;28;20564;-42
2024/02/25 14:01:08;;;;;;;2.53;2.33;;;17.90;58.60;;;;;;4213393;28;19927;-42
2024/02/25 14:03:50;;;;;;;3.05;2.85;;;17.90;58.70;;;;;;4186305;28;20511;-42
2024/02/25 14:06:33;;;;;;;2.65;2.55;;;18.00;58.70;;;;;;4186953;28;20043;-41